Atwood, Alabama
Current Conditions -  °F | °C
As of 5:56 AM on Friday 21 Nov 2014 (Local Time) from K1M4 Reporting Station
Broken Clouds Broken Clouds  
Wind Chill:   Ceiling: 3000
Heat Index:   Visibility: 10mi
Dew Point: -2°   Wind: 0mph
Humidity: 68%   Direction: NA
Pressure: 30.35"   Gusts: NA
Location:  34.3479°N, 87.9692°W
Report Text: K1M4 211156Z AUTO 00000KT 10SM BKN030 04/M02 A3035 RMK AO2 53013 T00381016 10038 21005 SLP286
Loading
Personal Weather Stations






























Interactive Weather Map New forecast layout! Learn more

10-Day Weather Forecast

Advertisements
Track Severe Weather on mobile